sensor_id;sensor_type;location;lat;lon;timestamp;P1;durP1;ratioP1;P2;durP2;ratioP2
611;SDS011;293;53.888;11.464;2023-05-27T00:00:04;10.27;;;6.03;;
611;SDS011;293;53.888;11.464;2023-05-27T00:02:34;12.10;;;6.77;;
611;SDS011;293;53.888;11.464;2023-05-27T00:05:01;9.10;;;7.73;;
611;SDS011;293;53.888;11.464;2023-05-27T00:07:29;11.40;;;7.30;;
611;SDS011;293;53.888;11.464;2023-05-27T00:09:56;15.80;;;7.17;;
611;SDS011;293;53.888;11.464;2023-05-27T00:12:23;13.43;;;7.50;;
611;SDS011;293;53.888;11.464;2023-05-27T00:14:50;9.20;;;6.57;;
611;SDS011;293;53.888;11.464;2023-05-27T00:17:16;12.67;;;6.70;;
611;SDS011;293;53.888;11.464;2023-05-27T00:19:46;13.53;;;6.03;;
611;SDS011;293;53.888;11.464;2023-05-27T00:22:13;8.97;;;7.33;;
611;SDS011;293;53.888;11.464;2023-05-27T00:24:40;5.47;;;4.40;;
611;SDS011;293;53.888;11.464;2023-05-27T00:27:07;12.80;;;5.80;;
611;SDS011;293;53.888;11.464;2023-05-27T00:29:35;12.13;;;6.10;;
611;SDS011;293;53.888;11.464;2023-05-27T00:32:02;11.03;;;6.00;;
611;SDS011;293;53.888;11.464;2023-05-27T00:34:29;11.30;;;6.13;;
611;SDS011;293;53.888;11.464;2023-05-27T00:36:58;9.70;;;6.23;;
611;SDS011;293;53.888;11.464;2023-05-27T00:39:25;10.27;;;6.07;;
611;SDS011;293;53.888;11.464;2023-05-27T00:41:51;12.00;;;6.20;;
611;SDS011;293;53.888;11.464;2023-05-27T00:44:20;8.23;;;6.67;;
611;SDS011;293;53.888;11.464;2023-05-27T00:46:47;16.13;;;8.47;;
611;SDS011;293;53.888;11.464;2023-05-27T00:49:14;8.33;;;6.20;;
611;SDS011;293;53.888;11.464;2023-05-27T00:51:42;9.77;;;5.37;;
611;SDS011;293;53.888;11.464;2023-05-27T00:54:10;12.03;;;6.70;;
611;SDS011;293;53.888;11.464;2023-05-27T00:56:37;9.17;;;5.50;;
611;SDS011;293;53.888;11.464;2023-05-27T00:59:05;8.47;;;5.37;;
611;SDS011;293;53.888;11.464;2023-05-27T01:01:32;15.03;;;6.43;;
611;SDS011;293;53.888;11.464;2023-05-27T01:04:01;9.13;;;5.10;;
611;SDS011;293;53.888;11.464;2023-05-27T01:06:31;9.17;;;5.97;;
611;SDS011;293;53.888;11.464;2023-05-27T01:09:07;18.23;;;7.03;;
611;SDS011;293;53.888;11.464;2023-05-27T01:11:41;11.03;;;6.70;;
611;SDS011;293;53.888;11.464;2023-05-27T01:14:10;11.90;;;6.80;;
611;SDS011;293;53.888;11.464;2023-05-27T01:16:39;12.37;;;6.40;;
611;SDS011;293;53.888;11.464;2023-05-27T01:19:11;11.10;;;6.73;;
611;SDS011;293;53.888;11.464;2023-05-27T01:21:41;8.60;;;6.50;;
611;SDS011;293;53.888;11.464;2023-05-27T01:24:12;15.30;;;6.87;;
611;SDS011;293;53.888;11.464;2023-05-27T01:26:39;7.53;;;6.23;;
611;SDS011;293;53.888;11.464;2023-05-27T01:29:07;12.87;;;7.00;;
611;SDS011;293;53.888;11.464;2023-05-27T01:31:35;8.37;;;6.10;;
611;SDS011;293;53.888;11.464;2023-05-27T01:34:07;8.50;;;6.17;;
611;SDS011;293;53.888;11.464;2023-05-27T01:36:37;10.33;;;6.40;;
611;SDS011;293;53.888;11.464;2023-05-27T01:39:09;13.90;;;6.60;;
611;SDS011;293;53.888;11.464;2023-05-27T01:41:38;14.87;;;7.30;;
611;SDS011;293;53.888;11.464;2023-05-27T01:44:07;10.03;;;6.00;;
611;SDS011;293;53.888;11.464;2023-05-27T01:46:36;8.33;;;6.33;;
611;SDS011;293;53.888;11.464;2023-05-27T01:49:03;9.30;;;6.33;;
611;SDS011;293;53.888;11.464;2023-05-27T01:51:30;10.27;;;6.60;;
611;SDS011;293;53.888;11.464;2023-05-27T01:53:57;9.50;;;7.23;;
611;SDS011;293;53.888;11.464;2023-05-27T01:56:24;10.63;;;6.50;;
611;SDS011;293;53.888;11.464;2023-05-27T01:58:52;13.03;;;7.00;;
611;SDS011;293;53.888;11.464;2023-05-27T02:01:19;8.63;;;7.03;;
611;SDS011;293;53.888;11.464;2023-05-27T02:03:47;10.90;;;6.13;;
611;SDS011;293;53.888;11.464;2023-05-27T02:06:14;7.73;;;5.77;;
611;SDS011;293;53.888;11.464;2023-05-27T02:08:41;7.90;;;6.40;;
611;SDS011;293;53.888;11.464;2023-05-27T02:11:08;7.20;;;6.30;;
611;SDS011;293;53.888;11.464;2023-05-27T02:13:34;6.73;;;5.90;;
611;SDS011;293;53.888;11.464;2023-05-27T02:16:04;5.73;;;5.07;;
611;SDS011;293;53.888;11.464;2023-05-27T02:18:31;7.50;;;5.10;;
611;SDS011;293;53.888;11.464;2023-05-27T02:20:58;9.77;;;5.40;;
611;SDS011;293;53.888;11.464;2023-05-27T02:23:30;8.90;;;5.63;;
611;SDS011;293;53.888;11.464;2023-05-27T02:25:57;6.40;;;5.27;;
611;SDS011;293;53.888;11.464;2023-05-27T02:28:25;7.43;;;5.70;;
611;SDS011;293;53.888;11.464;2023-05-27T02:30:52;10.40;;;5.83;;
611;SDS011;293;53.888;11.464;2023-05-27T02:33:20;11.90;;;5.90;;
611;SDS011;293;53.888;11.464;2023-05-27T02:35:47;10.33;;;4.90;;
611;SDS011;293;53.888;11.464;2023-05-27T02:38:14;8.80;;;6.00;;
611;SDS011;293;53.888;11.464;2023-05-27T02:40:41;8.23;;;5.50;;
611;SDS011;293;53.888;11.464;2023-05-27T02:43:08;9.60;;;5.30;;
611;SDS011;293;53.888;11.464;2023-05-27T02:45:35;8.53;;;5.00;;
611;SDS011;293;53.888;11.464;2023-05-27T02:48:02;7.50;;;5.10;;
611;SDS011;293;53.888;11.464;2023-05-27T02:50:31;8.37;;;4.73;;
611;SDS011;293;53.888;11.464;2023-05-27T02:52:58;6.53;;;5.20;;
611;SDS011;293;53.888;11.464;2023-05-27T02:55:25;10.93;;;6.20;;
611;SDS011;293;53.888;11.464;2023-05-27T02:57:52;8.67;;;5.93;;
611;SDS011;293;53.888;11.464;2023-05-27T03:00:19;6.83;;;4.13;;
611;SDS011;293;53.888;11.464;2023-05-27T03:02:46;8.53;;;4.60;;
611;SDS011;293;53.888;11.464;2023-05-27T03:05:13;6.50;;;5.33;;
611;SDS011;293;53.888;11.464;2023-05-27T03:07:42;8.33;;;5.57;;
611;SDS011;293;53.888;11.464;2023-05-27T03:10:09;8.03;;;5.47;;
611;SDS011;293;53.888;11.464;2023-05-27T03:12:36;7.10;;;5.57;;
611;SDS011;293;53.888;11.464;2023-05-27T03:15:03;9.73;;;4.93;;
611;SDS011;293;53.888;11.464;2023-05-27T03:17:31;12.23;;;6.30;;
611;SDS011;293;53.888;11.464;2023-05-27T03:19:59;10.63;;;5.97;;
611;SDS011;293;53.888;11.464;2023-05-27T03:22:26;11.20;;;5.40;;
611;SDS011;293;53.888;11.464;2023-05-27T03:24:54;6.17;;;4.90;;
611;SDS011;293;53.888;11.464;2023-05-27T03:27:21;10.10;;;5.17;;
611;SDS011;293;53.888;11.464;2023-05-27T03:29:48;7.00;;;5.60;;
611;SDS011;293;53.888;11.464;2023-05-27T03:32:15;6.90;;;5.40;;
611;SDS011;293;53.888;11.464;2023-05-27T03:34:42;7.77;;;6.13;;
611;SDS011;293;53.888;11.464;2023-05-27T03:37:09;12.10;;;5.33;;
611;SDS011;293;53.888;11.464;2023-05-27T03:39:36;9.20;;;5.40;;
611;SDS011;293;53.888;11.464;2023-05-27T03:42:05;9.47;;;5.97;;
611;SDS011;293;53.888;11.464;2023-05-27T03:44:32;10.97;;;5.10;;
611;SDS011;293;53.888;11.464;2023-05-27T03:47:01;7.37;;;4.60;;
611;SDS011;293;53.888;11.464;2023-05-27T03:49:28;6.00;;;5.40;;
611;SDS011;293;53.888;11.464;2023-05-27T03:51:55;9.20;;;5.17;;
611;SDS011;293;53.888;11.464;2023-05-27T03:54:25;8.67;;;4.83;;
611;SDS011;293;53.888;11.464;2023-05-27T03:56:52;8.13;;;4.77;;
611;SDS011;293;53.888;11.464;2023-05-27T03:59:20;8.00;;;4.83;;
611;SDS011;293;53.888;11.464;2023-05-27T04:01:47;9.83;;;5.67;;
611;SDS011;293;53.888;11.464;2023-05-27T04:04:14;4.53;;;3.50;;
611;SDS011;293;53.888;11.464;2023-05-27T04:06:41;5.63;;;4.30;;
611;SDS011;293;53.888;11.464;2023-05-27T04:09:08;5.83;;;4.77;;
611;SDS011;293;53.888;11.464;2023-05-27T04:11:35;7.40;;;4.97;;
611;SDS011;293;53.888;11.464;2023-05-27T04:14:02;8.53;;;4.80;;
611;SDS011;293;53.888;11.464;2023-05-27T04:16:33;4.67;;;3.67;;
611;SDS011;293;53.888;11.464;2023-05-27T04:19:00;6.10;;;4.53;;
611;SDS011;293;53.888;11.464;2023-05-27T04:21:27;5.40;;;3.80;;
611;SDS011;293;53.888;11.464;2023-05-27T04:23:54;4.50;;;3.67;;
611;SDS011;293;53.888;11.464;2023-05-27T04:26:21;6.60;;;3.67;;
611;SDS011;293;53.888;11.464;2023-05-27T04:28:48;9.33;;;4.23;;
611;SDS011;293;53.888;11.464;2023-05-27T04:31:15;13.43;;;5.67;;
611;SDS011;293;53.888;11.464;2023-05-27T04:33:43;10.23;;;5.87;;
611;SDS011;293;53.888;11.464;2023-05-27T04:36:10;5.37;;;3.40;;
611;SDS011;293;53.888;11.464;2023-05-27T04:38:37;7.23;;;4.33;;
611;SDS011;293;53.888;11.464;2023-05-27T04:41:05;6.60;;;3.17;;
611;SDS011;293;53.888;11.464;2023-05-27T04:43:32;6.60;;;4.30;;
611;SDS011;293;53.888;11.464;2023-05-27T04:45:59;6.73;;;3.87;;
611;SDS011;293;53.888;11.464;2023-05-27T04:48:26;4.80;;;3.93;;
611;SDS011;293;53.888;11.464;2023-05-27T04:50:55;4.43;;;3.50;;
611;SDS011;293;53.888;11.464;2023-05-27T04:53:23;4.60;;;3.10;;
611;SDS011;293;53.888;11.464;2023-05-27T04:55:50;6.03;;;4.23;;
611;SDS011;293;53.888;11.464;2023-05-27T04:58:17;5.40;;;3.90;;
611;SDS011;293;53.888;11.464;2023-05-27T05:00:44;7.97;;;3.37;;
611;SDS011;293;53.888;11.464;2023-05-27T05:03:18;10.90;;;4.23;;
611;SDS011;293;53.888;11.464;2023-05-27T05:05:47;4.97;;;3.80;;
611;SDS011;293;53.888;11.464;2023-05-27T05:08:17;7.33;;;4.27;;
611;SDS011;293;53.888;11.464;2023-05-27T05:10:46;6.63;;;4.17;;
611;SDS011;293;53.888;11.464;2023-05-27T05:13:13;4.33;;;3.87;;
611;SDS011;293;53.888;11.464;2023-05-27T05:15:41;5.30;;;3.93;;
611;SDS011;293;53.888;11.464;2023-05-27T05:18:08;4.40;;;3.50;;
611;SDS011;293;53.888;11.464;2023-05-27T05:20:36;5.50;;;4.03;;
611;SDS011;293;53.888;11.464;2023-05-27T05:23:03;9.80;;;4.20;;
611;SDS011;293;53.888;11.464;2023-05-27T05:25:33;5.10;;;3.20;;
611;SDS011;293;53.888;11.464;2023-05-27T05:28:02;5.90;;;3.83;;
611;SDS011;293;53.888;11.464;2023-05-27T05:30:29;6.43;;;3.97;;
611;SDS011;293;53.888;11.464;2023-05-27T05:32:56;7.73;;;4.60;;
611;SDS011;293;53.888;11.464;2023-05-27T05:35:23;5.60;;;4.67;;
611;SDS011;293;53.888;11.464;2023-05-27T05:37:50;9.23;;;3.90;;
611;SDS011;293;53.888;11.464;2023-05-27T05:40:17;5.23;;;3.47;;
611;SDS011;293;53.888;11.464;2023-05-27T05:42:45;7.03;;;4.10;;
611;SDS011;293;53.888;11.464;2023-05-27T05:45:12;7.00;;;3.90;;
611;SDS011;293;53.888;11.464;2023-05-27T05:47:39;7.87;;;4.93;;
611;SDS011;293;53.888;11.464;2023-05-27T05:50:06;8.93;;;7.90;;
611;SDS011;293;53.888;11.464;2023-05-27T05:52:33;14.83;;;8.57;;
611;SDS011;293;53.888;11.464;2023-05-27T05:55:00;10.77;;;8.00;;
611;SDS011;293;53.888;11.464;2023-05-27T05:57:27;14.00;;;8.53;;
611;SDS011;293;53.888;11.464;2023-05-27T05:59:58;8.80;;;5.70;;
611;SDS011;293;53.888;11.464;2023-05-27T06:02:24;7.67;;;4.67;;
611;SDS011;293;53.888;11.464;2023-05-27T06:04:51;13.87;;;6.70;;
611;SDS011;293;53.888;11.464;2023-05-27T06:07:18;11.57;;;8.00;;
611;SDS011;293;53.888;11.464;2023-05-27T06:09:45;6.80;;;4.77;;
611;SDS011;293;53.888;11.464;2023-05-27T06:12:12;9.10;;;4.23;;
611;SDS011;293;53.888;11.464;2023-05-27T06:14:39;8.27;;;5.00;;
611;SDS011;293;53.888;11.464;2023-05-27T06:17:07;10.67;;;5.53;;
611;SDS011;293;53.888;11.464;2023-05-27T06:19:34;8.27;;;5.63;;
611;SDS011;293;53.888;11.464;2023-05-27T06:22:01;8.07;;;4.30;;
611;SDS011;293;53.888;11.464;2023-05-27T06:24:30;12.77;;;6.27;;
611;SDS011;293;53.888;11.464;2023-05-27T06:26:57;12.43;;;4.40;;
611;SDS011;293;53.888;11.464;2023-05-27T06:29:23;6.40;;;4.20;;
611;SDS011;293;53.888;11.464;2023-05-27T06:31:50;10.50;;;4.10;;
611;SDS011;293;53.888;11.464;2023-05-27T06:34:19;11.23;;;4.43;;
611;SDS011;293;53.888;11.464;2023-05-27T06:36:46;10.23;;;4.80;;
611;SDS011;293;53.888;11.464;2023-05-27T06:39:14;8.10;;;3.63;;
611;SDS011;293;53.888;11.464;2023-05-27T06:41:40;8.30;;;3.60;;
611;SDS011;293;53.888;11.464;2023-05-27T06:44:07;7.53;;;4.40;;
611;SDS011;293;53.888;11.464;2023-05-27T06:46:34;10.43;;;6.30;;
611;SDS011;293;53.888;11.464;2023-05-27T06:49:03;13.33;;;9.10;;
611;SDS011;293;53.888;11.464;2023-05-27T06:51:31;15.50;;;5.10;;
611;SDS011;293;53.888;11.464;2023-05-27T06:53:58;11.20;;;5.73;;
611;SDS011;293;53.888;11.464;2023-05-27T06:56:25;13.33;;;5.80;;
611;SDS011;293;53.888;11.464;2023-05-27T06:58:52;7.90;;;4.50;;
611;SDS011;293;53.888;11.464;2023-05-27T07:01:19;10.30;;;5.10;;
611;SDS011;293;53.888;11.464;2023-05-27T07:03:46;10.10;;;5.43;;
611;SDS011;293;53.888;11.464;2023-05-27T07:06:13;11.23;;;5.10;;
611;SDS011;293;53.888;11.464;2023-05-27T07:08:41;10.67;;;5.00;;
611;SDS011;293;53.888;11.464;2023-05-27T07:11:08;11.40;;;6.10;;
611;SDS011;293;53.888;11.464;2023-05-27T07:13:35;15.43;;;5.90;;
611;SDS011;293;53.888;11.464;2023-05-27T07:16:02;8.80;;;5.80;;
611;SDS011;293;53.888;11.464;2023-05-27T07:18:28;16.43;;;4.60;;
611;SDS011;293;53.888;11.464;2023-05-27T07:20:55;11.20;;;5.77;;
611;SDS011;293;53.888;11.464;2023-05-27T07:23:22;13.07;;;5.40;;
611;SDS011;293;53.888;11.464;2023-05-27T07:25:50;9.97;;;4.50;;
611;SDS011;293;53.888;11.464;2023-05-27T07:28:17;10.00;;;5.00;;
611;SDS011;293;53.888;11.464;2023-05-27T07:30:44;9.00;;;4.60;;
611;SDS011;293;53.888;11.464;2023-05-27T07:33:11;11.50;;;6.47;;
611;SDS011;293;53.888;11.464;2023-05-27T07:35:39;16.00;;;6.30;;
611;SDS011;293;53.888;11.464;2023-05-27T07:38:06;6.87;;;3.90;;
611;SDS011;293;53.888;11.464;2023-05-27T07:40:33;10.27;;;4.70;;
611;SDS011;293;53.888;11.464;2023-05-27T07:43:01;8.67;;;4.57;;
611;SDS011;293;53.888;11.464;2023-05-27T07:45:28;11.83;;;6.17;;
611;SDS011;293;53.888;11.464;2023-05-27T07:47:55;17.17;;;6.80;;
611;SDS011;293;53.888;11.464;2023-05-27T07:50:22;10.47;;;5.67;;
611;SDS011;293;53.888;11.464;2023-05-27T07:52:49;10.70;;;4.77;;
611;SDS011;293;53.888;11.464;2023-05-27T07:55:18;9.87;;;3.53;;
611;SDS011;293;53.888;11.464;2023-05-27T08:01:32;8.30;;;4.57;;
611;SDS011;293;53.888;11.464;2023-05-27T08:04:10;10.17;;;6.30;;
611;SDS011;293;53.888;11.464;2023-05-27T08:06:56;11.37;;;6.93;;
611;SDS011;293;53.888;11.464;2023-05-27T08:09:23;12.03;;;6.90;;
611;SDS011;293;53.888;11.464;2023-05-27T08:11:51;13.17;;;5.50;;
611;SDS011;293;53.888;11.464;2023-05-27T08:14:18;13.63;;;6.87;;
611;SDS011;293;53.888;11.464;2023-05-27T08:16:48;14.80;;;6.50;;
611;SDS011;293;53.888;11.464;2023-05-27T08:19:15;14.27;;;5.87;;
611;SDS011;293;53.888;11.464;2023-05-27T08:21:42;12.40;;;5.37;;
611;SDS011;293;53.888;11.464;2023-05-27T08:24:09;10.90;;;5.97;;
611;SDS011;293;53.888;11.464;2023-05-27T08:26:37;14.17;;;6.20;;
611;SDS011;293;53.888;11.464;2023-05-27T08:29:04;12.00;;;6.43;;
611;SDS011;293;53.888;11.464;2023-05-27T08:31:31;11.10;;;6.40;;
611;SDS011;293;53.888;11.464;2023-05-27T08:33:59;15.87;;;10.00;;
611;SDS011;293;53.888;11.464;2023-05-27T08:36:26;13.73;;;8.60;;
611;SDS011;293;53.888;11.464;2023-05-27T08:38:53;10.10;;;5.40;;
611;SDS011;293;53.888;11.464;2023-05-27T08:41:20;10.90;;;5.57;;
611;SDS011;293;53.888;11.464;2023-05-27T08:43:47;17.67;;;7.73;;
611;SDS011;293;53.888;11.464;2023-05-27T08:46:15;9.00;;;5.87;;
611;SDS011;293;53.888;11.464;2023-05-27T08:48:42;11.43;;;5.47;;
611;SDS011;293;53.888;11.464;2023-05-27T08:51:11;12.00;;;5.83;;
611;SDS011;293;53.888;11.464;2023-05-27T08:53:39;14.53;;;6.60;;
611;SDS011;293;53.888;11.464;2023-05-27T08:56:07;9.73;;;5.10;;
611;SDS011;293;53.888;11.464;2023-05-27T08:58:37;12.47;;;4.50;;
611;SDS011;293;53.888;11.464;2023-05-27T09:01:05;9.20;;;4.60;;
611;SDS011;293;53.888;11.464;2023-05-27T09:03:34;17.80;;;5.50;;
611;SDS011;293;53.888;11.464;2023-05-27T09:06:01;10.80;;;5.60;;
611;SDS011;293;53.888;11.464;2023-05-27T09:08:30;11.43;;;5.13;;
611;SDS011;293;53.888;11.464;2023-05-27T09:10:57;9.90;;;4.07;;
611;SDS011;293;53.888;11.464;2023-05-27T09:13:25;11.50;;;4.50;;
611;SDS011;293;53.888;11.464;2023-05-27T09:15:57;14.90;;;5.00;;
611;SDS011;293;53.888;11.464;2023-05-27T09:18:25;14.30;;;5.13;;
611;SDS011;293;53.888;11.464;2023-05-27T09:20:53;12.70;;;4.77;;
611;SDS011;293;53.888;11.464;2023-05-27T09:23:21;12.33;;;4.20;;
611;SDS011;293;53.888;11.464;2023-05-27T09:25:49;8.30;;;4.73;;
611;SDS011;293;53.888;11.464;2023-05-27T09:28:19;13.70;;;4.87;;
611;SDS011;293;53.888;11.464;2023-05-27T09:30:50;11.17;;;4.30;;
611;SDS011;293;53.888;11.464;2023-05-27T09:33:22;23.27;;;11.80;;
611;SDS011;293;53.888;11.464;2023-05-27T09:35:50;10.33;;;5.40;;
611;SDS011;293;53.888;11.464;2023-05-27T09:38:17;12.30;;;4.97;;
611;SDS011;293;53.888;11.464;2023-05-27T09:40:43;11.20;;;4.93;;
611;SDS011;293;53.888;11.464;2023-05-27T09:43:13;10.63;;;4.70;;
611;SDS011;293;53.888;11.464;2023-05-27T09:45:41;15.20;;;5.03;;
611;SDS011;293;53.888;11.464;2023-05-27T09:48:09;14.43;;;4.03;;
611;SDS011;293;53.888;11.464;2023-05-27T09:50:38;15.33;;;4.20;;
611;SDS011;293;53.888;11.464;2023-05-27T09:53:06;8.80;;;3.63;;
611;SDS011;293;53.888;11.464;2023-05-27T09:55:34;16.10;;;5.97;;
611;SDS011;293;53.888;11.464;2023-05-27T09:58:01;15.97;;;5.93;;
611;SDS011;293;53.888;11.464;2023-05-27T10:00:30;9.20;;;5.33;;
611;SDS011;293;53.888;11.464;2023-05-27T10:03:00;10.27;;;4.90;;
611;SDS011;293;53.888;11.464;2023-05-27T10:05:28;9.83;;;3.83;;
611;SDS011;293;53.888;11.464;2023-05-27T10:07:56;10.07;;;3.90;;
611;SDS011;293;53.888;11.464;2023-05-27T10:10:23;8.13;;;5.23;;
611;SDS011;293;53.888;11.464;2023-05-27T10:12:50;9.37;;;4.13;;
611;SDS011;293;53.888;11.464;2023-05-27T10:15:26;8.80;;;3.77;;
611;SDS011;293;53.888;11.464;2023-05-27T10:17:56;20.00;;;4.27;;
611;SDS011;293;53.888;11.464;2023-05-27T10:20:26;15.17;;;4.03;;
611;SDS011;293;53.888;11.464;2023-05-27T10:22:53;15.00;;;3.80;;
611;SDS011;293;53.888;11.464;2023-05-27T10:25:22;7.47;;;3.33;;
611;SDS011;293;53.888;11.464;2023-05-27T10:27:51;9.33;;;5.00;;
611;SDS011;293;53.888;11.464;2023-05-27T10:30:18;8.43;;;3.50;;
611;SDS011;293;53.888;11.464;2023-05-27T10:32:48;13.00;;;4.70;;
611;SDS011;293;53.888;11.464;2023-05-27T10:35:17;12.77;;;4.20;;
611;SDS011;293;53.888;11.464;2023-05-27T10:37:45;8.63;;;3.70;;
611;SDS011;293;53.888;11.464;2023-05-27T10:40:12;14.13;;;4.10;;
611;SDS011;293;53.888;11.464;2023-05-27T10:42:57;12.90;;;4.53;;
611;SDS011;293;53.888;11.464;2023-05-27T10:45:30;11.43;;;3.90;;
611;SDS011;293;53.888;11.464;2023-05-27T10:47:59;9.80;;;4.70;;
611;SDS011;293;53.888;11.464;2023-05-27T10:50:30;13.27;;;4.00;;
611;SDS011;293;53.888;11.464;2023-05-27T10:52:59;13.03;;;4.40;;
611;SDS011;293;53.888;11.464;2023-05-27T10:55:26;11.67;;;4.20;;
611;SDS011;293;53.888;11.464;2023-05-27T10:57:54;16.30;;;3.80;;
611;SDS011;293;53.888;11.464;2023-05-27T11:00:22;8.40;;;3.30;;
611;SDS011;293;53.888;11.464;2023-05-27T11:02:52;6.80;;;2.90;;
611;SDS011;293;53.888;11.464;2023-05-27T11:05:19;10.37;;;3.47;;
611;SDS011;293;53.888;11.464;2023-05-27T11:07:55;14.53;;;4.40;;
611;SDS011;293;53.888;11.464;2023-05-27T11:10:21;11.73;;;4.47;;
611;SDS011;293;53.888;11.464;2023-05-27T11:12:48;13.40;;;4.10;;
611;SDS011;293;53.888;11.464;2023-05-27T11:15:16;10.30;;;3.93;;
611;SDS011;293;53.888;11.464;2023-05-27T11:17:44;11.70;;;3.80;;
611;SDS011;293;53.888;11.464;2023-05-27T11:20:11;8.60;;;3.47;;
611;SDS011;293;53.888;11.464;2023-05-27T11:22:41;5.53;;;3.20;;
611;SDS011;293;53.888;11.464;2023-05-27T11:25:17;16.97;;;4.70;;
611;SDS011;293;53.888;11.464;2023-05-27T11:27:44;12.80;;;3.30;;
611;SDS011;293;53.888;11.464;2023-05-27T11:30:11;10.60;;;4.13;;
611;SDS011;293;53.888;11.464;2023-05-27T11:32:39;8.23;;;3.50;;
611;SDS011;293;53.888;11.464;2023-05-27T11:35:12;12.90;;;4.63;;
611;SDS011;293;53.888;11.464;2023-05-27T11:37:39;12.87;;;4.10;;
611;SDS011;293;53.888;11.464;2023-05-27T11:40:10;10.80;;;4.10;;
611;SDS011;293;53.888;11.464;2023-05-27T11:42:42;10.60;;;4.60;;
611;SDS011;293;53.888;11.464;2023-05-27T11:45:14;12.70;;;3.83;;
611;SDS011;293;53.888;11.464;2023-05-27T11:47:41;13.60;;;4.27;;
611;SDS011;293;53.888;11.464;2023-05-27T11:50:08;10.57;;;4.07;;
611;SDS011;293;53.888;11.464;2023-05-27T11:52:35;9.17;;;3.70;;
611;SDS011;293;53.888;11.464;2023-05-27T11:55:16;9.03;;;3.37;;
611;SDS011;293;53.888;11.464;2023-05-27T11:57:44;9.67;;;3.53;;
611;SDS011;293;53.888;11.464;2023-05-27T12:00:11;12.27;;;3.47;;
611;SDS011;293;53.888;11.464;2023-05-27T12:02:39;9.63;;;3.97;;
611;SDS011;293;53.888;11.464;2023-05-27T12:05:07;11.63;;;4.00;;
611;SDS011;293;53.888;11.464;2023-05-27T12:07:35;6.57;;;2.83;;
611;SDS011;293;53.888;11.464;2023-05-27T12:10:05;12.63;;;3.87;;
611;SDS011;293;53.888;11.464;2023-05-27T12:12:33;8.93;;;2.90;;
611;SDS011;293;53.888;11.464;2023-05-27T12:15:02;6.53;;;2.50;;
611;SDS011;293;53.888;11.464;2023-05-27T12:17:30;6.77;;;3.27;;
611;SDS011;293;53.888;11.464;2023-05-27T12:19:57;11.60;;;4.07;;
611;SDS011;293;53.888;11.464;2023-05-27T12:22:24;9.27;;;3.10;;
611;SDS011;293;53.888;11.464;2023-05-27T12:24:50;10.23;;;3.30;;
611;SDS011;293;53.888;11.464;2023-05-27T12:27:18;13.27;;;3.60;;
611;SDS011;293;53.888;11.464;2023-05-27T12:29:45;8.43;;;3.53;;
611;SDS011;293;53.888;11.464;2023-05-27T12:32:14;10.53;;;3.37;;
611;SDS011;293;53.888;11.464;2023-05-27T12:34:41;6.93;;;3.70;;
611;SDS011;293;53.888;11.464;2023-05-27T12:37:08;7.13;;;3.27;;
611;SDS011;293;53.888;11.464;2023-05-27T12:39:35;8.43;;;3.90;;
611;SDS011;293;53.888;11.464;2023-05-27T12:42:02;8.40;;;3.43;;
611;SDS011;293;53.888;11.464;2023-05-27T12:44:29;10.53;;;4.10;;
611;SDS011;293;53.888;11.464;2023-05-27T12:46:56;14.00;;;4.17;;
611;SDS011;293;53.888;11.464;2023-05-27T12:49:24;9.50;;;3.70;;
611;SDS011;293;53.888;11.464;2023-05-27T12:51:51;10.63;;;3.80;;
611;SDS011;293;53.888;11.464;2023-05-27T12:54:18;8.63;;;3.10;;
611;SDS011;293;53.888;11.464;2023-05-27T12:56:45;10.77;;;3.63;;
611;SDS011;293;53.888;11.464;2023-05-27T12:59:12;9.30;;;3.20;;
611;SDS011;293;53.888;11.464;2023-05-27T13:01:39;10.90;;;4.30;;
611;SDS011;293;53.888;11.464;2023-05-27T13:04:06;17.83;;;3.50;;
611;SDS011;293;53.888;11.464;2023-05-27T13:06:34;8.13;;;2.80;;
611;SDS011;293;53.888;11.464;2023-05-27T13:09:02;8.90;;;3.93;;
611;SDS011;293;53.888;11.464;2023-05-27T13:11:30;9.87;;;3.70;;
611;SDS011;293;53.888;11.464;2023-05-27T13:13:57;14.60;;;5.00;;
611;SDS011;293;53.888;11.464;2023-05-27T13:16:23;11.47;;;4.67;;
611;SDS011;293;53.888;11.464;2023-05-27T13:18:51;10.07;;;5.70;;
611;SDS011;293;53.888;11.464;2023-05-27T13:21:17;12.20;;;6.03;;
611;SDS011;293;53.888;11.464;2023-05-27T13:23:46;15.07;;;5.87;;
611;SDS011;293;53.888;11.464;2023-05-27T13:26:13;10.33;;;4.20;;
611;SDS011;293;53.888;11.464;2023-05-27T13:28:39;7.10;;;4.33;;
611;SDS011;293;53.888;11.464;2023-05-27T13:31:07;10.70;;;6.00;;
611;SDS011;293;53.888;11.464;2023-05-27T13:33:34;10.63;;;4.87;;
611;SDS011;293;53.888;11.464;2023-05-27T13:36:00;17.00;;;6.20;;
611;SDS011;293;53.888;11.464;2023-05-27T13:38:28;10.73;;;6.23;;
611;SDS011;293;53.888;11.464;2023-05-27T13:40:56;10.73;;;5.67;;
611;SDS011;293;53.888;11.464;2023-05-27T13:43:24;13.60;;;4.63;;
611;SDS011;293;53.888;11.464;2023-05-27T13:45:51;14.97;;;5.70;;
611;SDS011;293;53.888;11.464;2023-05-27T13:48:18;13.60;;;6.40;;
611;SDS011;293;53.888;11.464;2023-05-27T13:50:45;14.47;;;6.60;;
611;SDS011;293;53.888;11.464;2023-05-27T13:53:12;13.20;;;6.10;;
611;SDS011;293;53.888;11.464;2023-05-27T13:55:39;17.13;;;7.13;;
611;SDS011;293;53.888;11.464;2023-05-27T13:58:09;10.60;;;5.60;;
611;SDS011;293;53.888;11.464;2023-05-27T14:00:36;10.43;;;5.00;;
611;SDS011;293;53.888;11.464;2023-05-27T14:03:03;10.10;;;5.70;;
611;SDS011;293;53.888;11.464;2023-05-27T14:05:30;10.17;;;6.10;;
611;SDS011;293;53.888;11.464;2023-05-27T14:07:57;12.43;;;5.73;;
611;SDS011;293;53.888;11.464;2023-05-27T14:10:25;13.30;;;5.70;;
611;SDS011;293;53.888;11.464;2023-05-27T14:12:52;16.43;;;6.33;;
611;SDS011;293;53.888;11.464;2023-05-27T14:15:20;10.17;;;6.33;;
611;SDS011;293;53.888;11.464;2023-05-27T14:17:47;12.90;;;7.87;;
611;SDS011;293;53.888;11.464;2023-05-27T14:20:14;13.40;;;7.03;;
611;SDS011;293;53.888;11.464;2023-05-27T14:22:41;14.27;;;7.70;;
611;SDS011;293;53.888;11.464;2023-05-27T14:25:08;15.70;;;9.00;;
611;SDS011;293;53.888;11.464;2023-05-27T14:27:35;14.10;;;6.50;;
611;SDS011;293;53.888;11.464;2023-05-27T14:30:02;19.60;;;7.20;;
611;SDS011;293;53.888;11.464;2023-05-27T14:32:31;14.17;;;9.30;;
611;SDS011;293;53.888;11.464;2023-05-27T14:34:58;17.43;;;9.50;;
611;SDS011;293;53.888;11.464;2023-05-27T14:37:25;19.27;;;10.73;;
611;SDS011;293;53.888;11.464;2023-05-27T14:39:52;15.77;;;7.83;;
611;SDS011;293;53.888;11.464;2023-05-27T14:42:19;14.77;;;7.17;;
611;SDS011;293;53.888;11.464;2023-05-27T14:44:46;20.10;;;7.87;;
611;SDS011;293;53.888;11.464;2023-05-27T14:47:13;10.70;;;6.37;;
611;SDS011;293;53.888;11.464;2023-05-27T14:49:41;15.90;;;6.90;;
611;SDS011;293;53.888;11.464;2023-05-27T14:52:09;8.70;;;5.90;;
611;SDS011;293;53.888;11.464;2023-05-27T14:54:36;12.60;;;6.80;;
611;SDS011;293;53.888;11.464;2023-05-27T14:57:03;18.47;;;7.70;;
611;SDS011;293;53.888;11.464;2023-05-27T14:59:30;11.53;;;6.23;;
611;SDS011;293;53.888;11.464;2023-05-27T15:01:58;14.33;;;6.27;;
611;SDS011;293;53.888;11.464;2023-05-27T15:04:25;9.10;;;5.50;;
611;SDS011;293;53.888;11.464;2023-05-27T15:06:53;14.00;;;5.67;;
611;SDS011;293;53.888;11.464;2023-05-27T15:09:20;10.53;;;3.77;;
611;SDS011;293;53.888;11.464;2023-05-27T15:11:47;14.10;;;4.90;;
611;SDS011;293;53.888;11.464;2023-05-27T15:14:14;13.40;;;5.63;;
611;SDS011;293;53.888;11.464;2023-05-27T15:16:41;12.60;;;5.77;;
611;SDS011;293;53.888;11.464;2023-05-27T15:19:08;10.77;;;5.93;;
611;SDS011;293;53.888;11.464;2023-05-27T15:21:35;12.60;;;7.30;;
611;SDS011;293;53.888;11.464;2023-05-27T15:24:03;13.00;;;7.80;;
611;SDS011;293;53.888;11.464;2023-05-27T15:26:30;14.57;;;10.30;;
611;SDS011;293;53.888;11.464;2023-05-27T15:28:57;12.30;;;7.70;;